Gaspé Airport, Quebec

Past 24 Hour Conditions

This table is a summary of hourly weather conditions for the past 24 hours. This summary includes the following parameters: temperature, humidity, dew point, wind speed and direction, air pressure, visibility and/or wind chill and humidex.
Date / Time
(EDT)
Conditions Temp (°F) Humidity (%) Dew Point (°F) Wind (mph) Pressure (inches) Vis (mi) Humidex
03 September 2014
00:00 Mostly Cloudy 68 89 65 ESE 4 29.7 15 *
02 September 2014
23:00 Cloudy 68 87 64 E 3 29.7 15 *
22:00 Mostly Cloudy 66 88 62 E 3 29.8 15 *
21:00 Mostly Cloudy 66 86 62 NNW 2 29.8 15 *
20:00 Mostly Cloudy 66 85 62 W 8 29.8 15 *
19:00 Mostly Cloudy 65 87 61 ENE 3 29.8 15 *
18:00 Mostly Cloudy 67 80 61 WSW 7 29.8 15 *
17:00 Mostly Cloudy 68 78 61 SW 8 29.8 15 77
16:00 Mostly Cloudy 69 76 61 SSW 4 29.8 15 77
15:00 Mostly Cloudy 69 77 61 SW 5 29.8 15 77
14:00 Mostly Cloudy 70   73 61 S 7 29.9 15 78
13:00 Mostly Cloudy 68 75 60 S 9 29.9 15 *
12:00 Mostly Cloudy 69 69 59 SSW 5 29.9 15 76
11:00 Mostly Cloudy 70   62 56 SSE 4 29.9 15 *
10:00 Mostly Cloudy 66 79 59 E 7 29.9 15 *
9:00 Mostly Cloudy 62 84 57 N 3 30.0 15 *
8:00 Mostly Cloudy 59 92 57 ENE 3 30.0 15 *
7:00 Mainly Sunny 53 98 53 W 5 30.0 15 *
6:00 Mostly Cloudy 51 98 50 W 5 30.0 15 *
5:00 Partly Cloudy 52 98 51 E 3 30.0 15 *
4:00 Mostly Cloudy 52 98 51 WSW 3 30.0 15 *
3:00 Clear 50 98 49 W 3 30.0 15 *
2:00 Clear 48   97 47 calm 30.0 15 *
1:00 Clear 48   97 48 calm 30.0 15 *
00:00 Clear 49 97 48 W 3 30.0 15 *
N/A
Not available
 ↑ 
Highest temperature
 ↓ 
Lowest temperature
*
Value not significant.

If you require additional historical weather information, please visit Climate Data Online.